createdAt,value
2023-01-08T00:05:16.895Z,82.61
2023-01-08T00:07:48.017Z,82.51
2023-01-08T00:10:17.664Z,82.70
2023-01-08T00:12:46.946Z,82.68
2023-01-08T00:15:16.252Z,82.44
2023-01-08T00:17:45.463Z,82.69
2023-01-08T00:23:08.302Z,82.52
2023-01-08T00:28:29.179Z,82.44
2023-01-08T00:30:58.455Z,82.24
2023-01-08T00:33:27.926Z,82.20
2023-01-08T00:35:57.204Z,82.11
2023-01-08T00:38:30.156Z,82.42
2023-01-08T00:41:04.554Z,81.97
2023-01-08T00:43:33.893Z,82.42
2023-01-08T00:46:03.161Z,81.92
2023-01-08T00:48:33.209Z,82.24
2023-01-08T00:51:04.137Z,82.29
2023-01-08T00:56:25.774Z,82.21
2023-01-08T00:58:55.000Z,82.06
2023-01-08T01:04:08.194Z,81.88
2023-01-08T01:06:37.535Z,81.71
2023-01-08T01:09:08.858Z,82.16
2023-01-08T01:11:38.541Z,81.83
2023-01-08T01:14:08.185Z,81.90
2023-01-08T01:16:44.641Z,81.67
2023-01-08T01:19:13.937Z,81.69
2023-01-08T01:21:43.107Z,82.09
2023-01-08T01:24:15.376Z,81.99
2023-01-08T01:26:44.957Z,82.31
2023-01-08T01:29:14.089Z,81.96
2023-01-08T01:31:43.366Z,81.85
2023-01-08T01:34:22.074Z,81.75
2023-01-08T01:36:51.408Z,81.86
2023-01-08T01:39:22.791Z,82.22
2023-01-08T01:41:53.005Z,82.21
2023-01-08T01:44:41.901Z,81.67
2023-01-08T01:47:29.421Z,81.80
2023-01-08T01:50:07.849Z,82.13
2023-01-08T01:55:29.242Z,82.22
2023-01-08T01:58:05.790Z,82.45
2023-01-08T02:00:36.666Z,82.77
2023-01-08T02:03:07.684Z,82.85
2023-01-08T02:05:47.543Z,83.00
2023-01-08T02:11:16.242Z,83.12
2023-01-08T02:13:59.897Z,83.33
2023-01-08T02:16:37.135Z,83.03
2023-01-08T02:19:15.919Z,82.92
2023-01-08T02:21:58.861Z,82.08
2023-01-08T02:24:42.033Z,82.58
2023-01-08T02:27:15.416Z,82.37
2023-01-08T02:29:50.670Z,82.11
2023-01-08T02:32:24.823Z,82.24
2023-01-08T02:37:44.198Z,81.88
2023-01-08T02:40:20.843Z,82.18
2023-01-08T02:43:12.046Z,82.02
2023-01-08T02:45:49.701Z,81.92
2023-01-08T02:48:27.051Z,81.50
2023-01-08T02:51:02.967Z,81.27
2023-01-08T02:53:41.262Z,81.00
2023-01-08T02:56:14.122Z,80.92
2023-01-08T02:58:48.139Z,81.27
2023-01-08T03:01:24.717Z,81.65
2023-01-08T03:04:03.912Z,81.72
2023-01-08T03:06:38.858Z,81.48
2023-01-08T03:09:11.354Z,81.23
2023-01-08T03:11:54.251Z,81.44
2023-01-08T03:14:30.145Z,81.21
2023-01-08T03:17:09.364Z,81.39
2023-01-08T03:19:50.261Z,81.13
2023-01-08T03:22:25.781Z,81.35
2023-01-08T03:24:58.630Z,81.45
2023-01-08T03:36:05.095Z,81.93
2023-01-08T03:38:38.811Z,82.49
2023-01-08T03:41:13.340Z,82.48
2023-01-08T03:43:43.149Z,82.55
2023-01-08T03:49:06.886Z,82.30
2023-01-08T03:51:42.623Z,82.73
2023-01-08T03:54:15.478Z,82.66
2023-01-08T03:56:44.879Z,82.54
2023-01-08T03:59:19.527Z,82.62
2023-01-08T04:01:50.960Z,82.63
2023-01-08T04:04:20.198Z,83.13
2023-01-08T04:06:49.357Z,83.27
2023-01-08T04:09:24.305Z,82.87
2023-01-08T04:14:39.794Z,83.24
2023-01-08T04:17:13.689Z,83.01
2023-01-08T04:19:42.946Z,82.88
2023-01-08T04:22:12.237Z,82.56
2023-01-08T04:24:47.696Z,83.22
2023-01-08T04:27:29.574Z,82.71
2023-01-08T04:29:58.826Z,82.61
2023-01-08T04:32:29.953Z,82.52
2023-01-08T04:34:59.134Z,82.44
2023-01-08T04:37:28.176Z,82.09
2023-01-08T04:39:57.337Z,82.35
2023-01-08T04:45:18.095Z,82.85
2023-01-08T04:47:54.727Z,83.04
2023-01-08T04:50:24.100Z,83.15
2023-01-08T04:52:53.244Z,82.94
2023-01-08T04:57:57.911Z,82.88
2023-01-08T05:00:26.997Z,83.07
2023-01-08T05:02:58.367Z,82.67
2023-01-08T05:05:27.296Z,82.78
2023-01-08T05:07:56.384Z,82.70
2023-01-08T05:10:31.796Z,82.72
2023-01-08T05:13:11.008Z,82.64
2023-01-08T05:15:40.427Z,83.17
2023-01-08T05:18:12.209Z,83.13
2023-01-08T05:20:46.520Z,83.61
2023-01-08T05:23:27.282Z,82.92
2023-01-08T05:26:04.502Z,83.13
2023-01-08T05:28:34.415Z,83.08
2023-01-08T05:31:03.683Z,82.99
2023-01-08T05:33:34.790Z,83.35
2023-01-08T05:36:07.012Z,83.26
2023-01-08T05:38:36.620Z,83.27
2023-01-08T05:41:06.308Z,83.61
2023-01-08T05:43:46.821Z,83.98
2023-01-08T05:46:16.005Z,83.76
2023-01-08T05:48:47.079Z,83.93
2023-01-08T05:51:16.494Z,83.84
2023-01-08T05:53:45.620Z,83.85
2023-01-08T05:56:14.965Z,84.15
2023-01-08T05:58:44.024Z,84.22
2023-01-08T06:01:15.729Z,84.09
2023-01-08T06:03:47.023Z,83.98
2023-01-08T06:06:21.346Z,83.83
2023-01-08T06:08:50.501Z,84.02
2023-01-08T06:11:19.591Z,84.16
2023-01-08T06:13:48.928Z,84.40
2023-01-08T06:16:28.219Z,84.46
2023-01-08T06:18:59.369Z,84.06
2023-01-08T06:21:28.649Z,83.95
2023-01-08T06:23:57.636Z,83.97
2023-01-08T06:26:26.830Z,84.30
2023-01-08T06:28:56.019Z,84.07
2023-01-08T06:31:25.468Z,83.59
2023-01-08T06:33:59.631Z,83.53
2023-01-08T06:36:30.908Z,83.22
2023-01-08T06:39:00.366Z,83.25
2023-01-08T06:41:29.764Z,82.89
2023-01-08T06:43:59.215Z,83.11
2023-01-08T06:46:33.530Z,82.88
2023-01-08T06:49:03.998Z,83.00
2023-01-08T06:51:35.410Z,82.81
2023-01-08T06:54:04.356Z,82.40
2023-01-08T06:56:45.332Z,82.18
2023-01-08T06:59:27.766Z,82.48
2023-01-08T07:01:57.109Z,82.23
2023-01-08T07:04:26.328Z,82.29
2023-01-08T07:06:57.537Z,82.32
2023-01-08T07:09:26.911Z,81.93
2023-01-08T07:11:55.946Z,81.95
2023-01-08T07:14:31.377Z,81.24
2023-01-08T07:17:01.131Z,80.79
2023-01-08T07:19:31.296Z,80.77
2023-01-08T07:22:02.468Z,81.07
2023-01-08T07:24:31.600Z,80.59
2023-01-08T07:27:10.922Z,80.79
2023-01-08T07:29:40.434Z,80.51
2023-01-08T07:32:09.576Z,80.43
2023-01-08T07:34:38.798Z,80.56
2023-01-08T07:37:09.841Z,80.62
2023-01-08T07:39:39.134Z,80.66
2023-01-08T07:42:08.682Z,81.01
2023-01-08T07:44:37.831Z,80.93
2023-01-08T07:47:07.061Z,80.95
2023-01-08T07:49:36.260Z,81.18
2023-01-08T07:52:05.494Z,81.30
2023-01-08T07:54:36.817Z,81.62
2023-01-08T07:57:06.209Z,81.33
2023-01-08T07:59:35.343Z,81.09
2023-01-08T08:02:04.634Z,81.14
2023-01-08T08:04:33.857Z,81.22
2023-01-08T08:07:03.489Z,81.09
2023-01-08T08:09:32.616Z,81.20
2023-01-08T08:12:04.068Z,80.86
2023-01-08T08:14:33.273Z,80.88
2023-01-08T08:17:02.841Z,80.62
2023-01-08T08:19:31.953Z,80.49
2023-01-08T08:22:02.714Z,80.42
2023-01-08T08:24:31.966Z,80.41
2023-01-08T08:27:01.141Z,80.15
2023-01-08T08:29:37.362Z,79.69
2023-01-08T08:32:07.059Z,80.25
2023-01-08T08:34:36.325Z,80.26
2023-01-08T08:37:10.691Z,79.84
2023-01-08T08:39:39.992Z,79.60
2023-01-08T08:42:09.168Z,79.88
2023-01-08T08:44:42.666Z,80.23
2023-01-08T08:47:12.741Z,80.20
2023-01-08T08:49:41.894Z,79.94
2023-01-08T08:52:10.980Z,79.78
2023-01-08T08:54:41.170Z,78.99
2023-01-08T08:57:15.536Z,79.23
2023-01-08T08:59:46.774Z,79.46
2023-01-08T09:02:16.256Z,79.62
2023-01-08T09:04:45.405Z,79.47
2023-01-08T09:07:14.658Z,79.75
2023-01-08T09:09:43.815Z,79.07
2023-01-08T09:12:13.120Z,78.77
2023-01-08T09:14:42.326Z,78.43
2023-01-08T09:17:14.137Z,78.47
2023-01-08T09:19:48.510Z,78.54
2023-01-08T09:22:17.648Z,78.64
2023-01-08T09:24:47.005Z,78.32
2023-01-08T09:27:16.325Z,78.54
2023-01-08T09:29:45.602Z,78.16
2023-01-08T09:32:16.762Z,78.10
2023-01-08T09:34:46.047Z,78.33
2023-01-08T09:37:15.169Z,78.56
2023-01-08T09:39:48.282Z,78.52
2023-01-08T09:42:32.736Z,78.67
2023-01-08T09:45:05.478Z,78.79
2023-01-08T09:47:40.743Z,78.05
2023-01-08T09:50:15.732Z,77.91
2023-01-08T09:52:50.029Z,77.83
2023-01-08T09:55:19.307Z,78.06
2023-01-08T09:57:50.345Z,78.29
2023-01-08T10:00:24.074Z,78.52
2023-01-08T10:03:02.393Z,77.70
2023-01-08T10:05:32.698Z,77.40
2023-01-08T10:08:01.736Z,77.34
2023-01-08T10:10:37.224Z,77.31
2023-01-08T10:13:14.967Z,77.25
2023-01-08T10:15:44.292Z,77.70
2023-01-08T10:18:19.752Z,77.94
2023-01-08T10:20:49.274Z,78.16
2023-01-08T10:23:20.773Z,77.79
2023-01-08T10:25:51.724Z,77.73
2023-01-08T10:28:23.159Z,77.89
2023-01-08T10:33:33.517Z,78.01
2023-01-08T10:36:05.420Z,78.28
2023-01-08T10:38:36.584Z,77.94
2023-01-08T10:41:07.602Z,77.99
2023-01-08T10:43:53.719Z,78.56
2023-01-08T10:46:27.239Z,78.98
2023-01-08T10:49:01.183Z,79.05
2023-01-08T10:51:32.937Z,79.18
2023-01-08T10:54:15.107Z,79.08
2023-01-08T10:56:46.573Z,78.83
2023-01-08T10:59:21.075Z,79.11
2023-01-08T11:01:52.851Z,79.14
2023-01-08T11:04:28.788Z,78.79
2023-01-08T11:06:59.477Z,79.25
2023-01-08T11:09:33.018Z,78.87
2023-01-08T11:12:03.073Z,79.00
2023-01-08T11:14:39.949Z,78.90
2023-01-08T11:17:12.655Z,79.21
2023-01-08T11:19:44.008Z,79.49
2023-01-08T11:22:28.743Z,79.38
2023-01-08T11:24:58.000Z,78.90
2023-01-08T11:27:32.549Z,79.11
2023-01-08T11:30:07.444Z,78.67
2023-01-08T11:32:48.293Z,78.76
2023-01-08T11:35:22.407Z,78.67
2023-01-08T11:37:54.205Z,78.73
2023-01-08T11:40:35.554Z,78.88
2023-01-08T11:43:30.211Z,78.50
2023-01-08T11:46:27.995Z,78.97
2023-01-08T11:49:32.503Z,78.74
2023-01-08T11:52:19.265Z,78.24
2023-01-08T11:55:14.940Z,78.09
2023-01-08T11:57:52.258Z,77.74
2023-01-08T12:00:39.953Z,78.16
2023-01-08T12:03:25.853Z,78.20
2023-01-08T12:06:02.975Z,77.37
2023-01-08T12:08:41.576Z,77.82
2023-01-08T12:11:20.254Z,77.93
2023-01-08T12:14:07.924Z,78.25
2023-01-08T12:16:51.488Z,78.08
2023-01-08T12:19:33.432Z,78.60
2023-01-08T12:22:28.235Z,78.45
2023-01-08T12:25:23.222Z,78.62
2023-01-08T12:28:03.369Z,78.51
2023-01-08T12:30:47.154Z,78.75
2023-01-08T12:33:24.303Z,78.63
2023-01-08T12:35:59.687Z,78.90
2023-01-08T12:38:34.100Z,79.07
2023-01-08T12:41:10.058Z,78.87
2023-01-08T12:43:50.155Z,78.54
2023-01-08T12:46:20.976Z,79.00
2023-01-08T12:54:31.182Z,77.46
2023-01-08T12:57:09.705Z,78.13
2023-01-08T12:59:44.841Z,78.39
2023-01-08T13:02:34.527Z,79.28
2023-01-08T13:05:14.488Z,79.15
2023-01-08T13:07:48.596Z,79.37
2023-01-08T13:10:32.545Z,79.49
2023-01-08T13:13:02.898Z,79.58
2023-01-08T13:15:34.621Z,79.92
2023-01-08T13:18:10.597Z,79.99
2023-01-08T13:20:45.174Z,79.90
2023-01-08T13:23:27.608Z,80.30
2023-01-08T13:26:00.978Z,80.11
2023-01-08T13:28:40.715Z,80.42
2023-01-08T13:31:11.759Z,80.79
2023-01-08T13:33:43.743Z,80.27
2023-01-08T13:36:25.594Z,79.98
2023-01-08T13:39:23.908Z,80.46
2023-01-08T13:42:04.147Z,80.61
2023-01-08T13:44:35.984Z,80.95
2023-01-08T13:47:09.528Z,81.24
2023-01-08T13:49:46.951Z,81.40
2023-01-08T13:52:32.148Z,81.80
2023-01-08T13:55:04.706Z,81.28
2023-01-08T13:57:41.626Z,81.56
2023-01-08T14:00:26.682Z,81.70
2023-01-08T14:02:55.944Z,82.16
2023-01-08T14:05:28.536Z,82.30
2023-01-08T14:07:58.713Z,82.46
2023-01-08T14:10:29.794Z,82.49
2023-01-08T14:13:08.725Z,82.00
2023-01-08T14:15:40.847Z,81.88
2023-01-08T14:18:16.215Z,81.80
2023-01-08T14:20:50.993Z,81.54
2023-01-08T14:23:25.516Z,82.06
2023-01-08T14:25:55.904Z,82.27
2023-01-08T14:28:26.993Z,82.50
2023-01-08T14:30:58.281Z,82.26
2023-01-08T14:33:32.624Z,82.34
2023-01-08T14:36:03.501Z,82.47
2023-01-08T14:38:32.887Z,82.88
2023-01-08T14:41:04.784Z,82.72
2023-01-08T14:43:41.963Z,82.51
2023-01-08T14:46:20.444Z,82.95
2023-01-08T14:48:51.116Z,83.06
2023-01-08T14:51:25.786Z,82.90
2023-01-08T14:54:02.426Z,83.00
2023-01-08T14:56:33.920Z,83.03
2023-01-08T14:59:09.836Z,83.03
2023-01-08T15:01:39.450Z,83.56
2023-01-08T15:04:19.607Z,84.02
2023-01-08T15:06:49.289Z,84.05
2023-01-08T15:09:24.754Z,83.76
2023-01-08T15:11:57.838Z,83.97
2023-01-08T15:14:36.630Z,83.83
2023-01-08T15:17:12.255Z,84.05
2023-01-08T15:19:49.125Z,84.14
2023-01-08T15:22:21.710Z,84.00
2023-01-08T15:25:00.100Z,84.16
2023-01-08T15:27:30.987Z,84.31
2023-01-08T15:30:03.597Z,83.82
2023-01-08T15:32:36.699Z,84.16
2023-01-08T15:35:16.268Z,84.21
2023-01-08T15:37:50.673Z,84.39
2023-01-08T15:40:19.944Z,84.37
2023-01-08T15:43:02.051Z,84.34
2023-01-08T15:45:39.844Z,84.81
2023-01-08T15:48:10.006Z,84.85
2023-01-08T15:50:45.991Z,84.73
2023-01-08T15:53:19.336Z,84.91
2023-01-08T15:55:54.507Z,85.02
2023-01-08T15:58:23.694Z,84.84
2023-01-08T16:00:55.197Z,85.32
2023-01-08T16:03:25.394Z,85.58
2023-01-08T16:05:54.493Z,85.50
2023-01-08T16:08:23.668Z,85.43
2023-01-08T16:10:54.253Z,85.49
2023-01-08T16:13:28.426Z,85.37
2023-01-08T16:15:59.637Z,85.30
2023-01-08T16:18:33.943Z,85.16
2023-01-08T16:21:03.442Z,85.27
2023-01-08T16:23:32.779Z,84.77
2023-01-08T16:26:01.965Z,85.29
2023-01-08T16:28:31.127Z,85.01
2023-01-08T16:31:02.249Z,85.19
2023-01-08T16:33:31.777Z,85.37
2023-01-08T16:36:06.981Z,85.08
2023-01-08T16:38:37.815Z,85.27
2023-01-08T16:41:17.241Z,85.52
2023-01-08T16:43:47.001Z,85.62
2023-01-08T16:46:20.281Z,85.30
2023-01-08T16:48:50.271Z,85.63
2023-01-08T16:51:20.815Z,85.62
2023-01-08T16:53:49.965Z,85.36
2023-01-08T16:56:19.957Z,85.50
2023-01-08T16:58:52.468Z,85.24
2023-01-08T17:01:28.824Z,85.95
2023-01-08T17:04:00.382Z,86.01
2023-01-08T17:06:30.362Z,85.89
2023-01-08T17:09:09.629Z,86.08
2023-01-08T17:11:40.412Z,86.31
2023-01-08T17:14:10.226Z,86.51
2023-01-08T17:16:42.358Z,86.56
2023-01-08T17:19:11.793Z,86.33
2023-01-08T17:21:41.098Z,86.33
2023-01-08T17:24:10.811Z,86.10
2023-01-08T17:26:44.995Z,86.19
2023-01-08T17:29:14.707Z,86.49
2023-01-08T17:31:45.839Z,86.69
2023-01-08T17:34:20.111Z,86.52
2023-01-08T17:36:49.427Z,86.30
2023-01-08T17:39:18.728Z,86.61
2023-01-08T17:42:01.024Z,86.29
2023-01-08T17:44:30.701Z,86.46
2023-01-08T17:47:01.837Z,86.00
2023-01-08T17:49:30.909Z,84.76
2023-01-08T17:52:04.955Z,84.33
2023-01-08T17:54:34.340Z,84.77
2023-01-08T17:57:03.430Z,84.84
2023-01-08T17:59:33.428Z,84.71
2023-01-08T18:02:04.765Z,84.50
2023-01-08T18:04:34.564Z,83.94
2023-01-08T18:07:04.725Z,84.80
2023-01-08T18:09:40.343Z,84.80
2023-01-08T18:12:10.144Z,83.71
2023-01-08T18:14:41.091Z,84.77
2023-01-08T18:17:12.852Z,85.18
2023-01-08T18:19:44.563Z,85.77
2023-01-08T18:22:13.721Z,85.24
2023-01-08T18:24:43.770Z,84.59
2023-01-08T18:27:13.018Z,85.66
2023-01-08T18:29:42.392Z,86.02
2023-01-08T18:32:13.872Z,85.35
2023-01-08T18:34:43.015Z,86.59
2023-01-08T18:37:12.122Z,86.28
2023-01-08T18:39:41.637Z,86.73
2023-01-08T18:42:30.366Z,86.82
2023-01-08T18:45:02.203Z,86.88
2023-01-08T18:47:34.920Z,86.96
2023-01-08T18:50:04.974Z,87.42
2023-01-08T18:52:34.200Z,87.04
2023-01-08T18:55:03.679Z,87.45
2023-01-08T18:57:37.947Z,87.74
2023-01-08T19:00:08.990Z,88.38
2023-01-08T19:02:43.106Z,88.51
2023-01-08T19:05:12.826Z,88.50
2023-01-08T19:07:41.977Z,89.21
2023-01-08T19:10:13.098Z,89.78
2023-01-08T19:12:42.451Z,89.89
2023-01-08T19:15:12.675Z,89.78
2023-01-08T19:17:44.315Z,89.57
2023-01-08T19:20:13.985Z,89.29
2023-01-08T19:22:46.079Z,89.26
2023-01-08T19:25:15.337Z,89.45
2023-01-08T19:27:44.431Z,89.63
2023-01-08T19:30:14.453Z,89.97
2023-01-08T19:32:48.402Z,90.25
2023-01-08T19:35:17.822Z,89.80
2023-01-08T19:37:47.017Z,89.28
2023-01-08T19:40:16.331Z,89.19
2023-01-08T19:42:58.585Z,89.77
2023-01-08T19:45:28.010Z,89.34
2023-01-08T19:47:59.169Z,89.41
2023-01-08T19:50:29.929Z,89.33
2023-01-08T19:53:05.978Z,88.98
2023-01-08T19:55:37.835Z,88.17
2023-01-08T19:58:12.135Z,87.99
2023-01-08T20:00:41.773Z,87.84
2023-01-08T20:03:13.490Z,88.38
2023-01-08T20:05:43.788Z,87.75
2023-01-08T20:08:12.968Z,87.75
2023-01-08T20:10:47.588Z,87.73
2023-01-08T20:13:16.944Z,87.46
2023-01-08T20:15:46.239Z,86.92
2023-01-08T20:20:52.887Z,87.23
2023-01-08T20:23:22.314Z,88.07
2023-01-08T20:25:51.680Z,87.15
2023-01-08T20:28:20.717Z,87.88
2023-01-08T20:30:50.881Z,87.70
2023-01-08T20:33:22.116Z,86.93
2023-01-08T20:35:52.030Z,87.05
2023-01-08T20:38:21.347Z,87.77
2023-01-08T20:40:52.893Z,87.41
2023-01-08T20:43:22.186Z,87.77
2023-01-08T20:45:51.455Z,87.32
2023-01-08T20:48:30.006Z,87.89
2023-01-08T20:51:03.892Z,87.94
2023-01-08T20:53:35.529Z,87.51
2023-01-08T20:56:05.353Z,86.55
2023-01-08T20:58:34.437Z,86.62
2023-01-08T21:01:13.328Z,87.41
2023-01-08T21:03:45.365Z,86.78
2023-01-08T21:06:17.237Z,86.96
2023-01-08T21:08:47.798Z,87.26
2023-01-08T21:11:22.880Z,86.79
2023-01-08T21:13:52.994Z,86.56
2023-01-08T21:16:24.735Z,86.76
2023-01-08T21:18:56.154Z,86.90
2023-01-08T21:21:28.352Z,86.87
2023-01-08T21:23:58.449Z,87.13
2023-01-08T21:26:33.736Z,86.90
2023-01-08T21:29:05.668Z,86.22
2023-01-08T21:31:35.770Z,86.27
2023-01-08T21:34:13.445Z,86.14
2023-01-08T21:36:44.107Z,86.26
2023-01-08T21:39:13.457Z,86.80
2023-01-08T21:41:55.569Z,86.79
2023-01-08T21:44:39.154Z,86.64
2023-01-08T21:47:10.319Z,86.29
2023-01-08T21:49:41.939Z,86.58
2023-01-08T21:55:11.145Z,86.90
2023-01-08T21:57:40.772Z,87.45
2023-01-08T22:00:11.640Z,87.19
2023-01-08T22:02:41.595Z,86.39
2023-01-08T22:05:12.969Z,86.32
2023-01-08T22:07:42.016Z,86.10
2023-01-08T22:10:14.236Z,86.55
2023-01-08T22:12:48.596Z,86.49
2023-01-08T22:15:19.103Z,86.04
2023-01-08T22:17:48.380Z,86.34
2023-01-08T22:20:19.749Z,86.32
2023-01-08T22:22:52.263Z,85.69
2023-01-08T22:25:21.497Z,85.76
2023-01-08T22:27:53.703Z,84.91
2023-01-08T22:30:24.461Z,85.33
2023-01-08T22:32:54.755Z,85.57
2023-01-08T22:35:25.910Z,85.62
2023-01-08T22:37:57.391Z,85.66
2023-01-08T22:40:32.535Z,85.28
2023-01-08T22:43:01.761Z,83.80
2023-01-08T22:45:37.606Z,83.02
2023-01-08T22:48:07.424Z,83.70
2023-01-08T22:50:38.627Z,84.58
2023-01-08T22:53:08.118Z,84.98
2023-01-08T22:55:42.831Z,85.59
2023-01-08T22:58:12.141Z,85.76
2023-01-08T23:00:41.293Z,85.66
2023-01-08T23:03:15.767Z,85.81
2023-01-08T23:05:52.031Z,85.76
2023-01-08T23:08:21.294Z,85.44
2023-01-08T23:10:56.729Z,85.31
2023-01-08T23:13:31.312Z,84.99
2023-01-08T23:16:00.503Z,85.26
2023-01-08T23:18:34.791Z,84.90
2023-01-08T23:21:09.625Z,83.85
2023-01-08T23:26:23.208Z,84.41
2023-01-08T23:28:58.676Z,85.11
2023-01-08T23:31:30.235Z,85.69
2023-01-08T23:33:59.607Z,85.72
2023-01-08T23:36:30.631Z,85.91
2023-01-08T23:39:06.944Z,85.70
2023-01-08T23:41:36.091Z,84.98
2023-01-08T23:44:08.077Z,85.29
2023-01-08T23:46:37.767Z,85.39
2023-01-08T23:49:08.122Z,85.66
2023-01-08T23:51:46.749Z,85.94
2023-01-08T23:54:16.748Z,86.61
2023-01-08T23:56:45.998Z,87.13
2023-01-08T23:59:20.377Z,86.68
